Time;durP1;ratioP1;P1;durP2;ratioP2;P2;SDS_P1;SDS_P2;PMS_P1;PMS_P2;Temp;Humidity;BMP_temperature;BMP_pressure;BME280_temperature;BME280_humidity;BME280_pressure;Samples;Min_cycle;Max_cycle;Signal;HPM_P1;HPM_P2
2022/08/05 00:01:58;;;;;;;1.90;1.08;;;23.60;99.90;;;;;;6724521;88;20322;-79
2022/08/05 00:11:58;;;;;;;1.95;1.05;;;23.40;99.90;;;;;;6724094;88;20201;-81
2022/08/05 00:21:59;;;;;;;1.45;0.85;;;23.20;99.90;;;;;;6726461;88;20752;-81
2022/08/05 00:32:00;;;;;;;2.33;1.10;;;23.20;99.90;;;;;;6728737;88;20188;-79
2022/08/05 00:42:01;;;;;;;1.73;0.95;;;23.10;99.90;;;;;;6730555;88;20714;-79
2022/08/05 00:52:02;;;;;;;1.70;1.00;;;23.10;99.90;;;;;;6729442;88;20226;-80
2022/08/05 01:02:03;;;;;;;1.60;1.13;;;22.90;99.90;;;;;;6727422;88;20225;-80
2022/08/05 01:12:11;;;;;;;1.37;0.80;;;22.90;99.90;;;;;;6725615;88;20532;-81
2022/08/05 01:22:28;;;;;;;1.80;1.12;;;22.70;99.90;;;;;;6728407;88;20263;-80
2022/08/05 01:32:32;;;;;;;1.42;0.93;;;22.40;99.90;;;;;;6729098;88;20185;-79
2022/08/05 01:42:35;;;;;;;2.55;1.10;;;22.50;99.90;;;;;;6730933;88;20237;-78
2022/08/05 01:52:36;;;;;;;1.40;1.00;;;22.30;99.90;;;;;;6726322;88;20311;-78
2022/08/05 02:02:44;;;;;;;2.17;0.90;;;22.10;99.90;;;;;;6728519;88;20193;-78
2022/08/05 02:12:54;;;;;;;1.98;1.08;;;22.20;99.90;;;;;;6730868;88;20662;-78
2022/08/05 02:22:58;;;;;;;2.10;1.02;;;21.90;99.90;;;;;;6730164;88;20195;-80
2022/08/05 02:33:01;;;;;;;2.20;0.90;;;21.70;99.90;;;;;;6729260;88;20309;-80
2022/08/05 02:43:04;;;;;;;2.28;0.80;;;21.10;99.90;;;;;;6724681;88;20222;-79
2022/08/05 02:53:05;;;;;;;1.73;1.00;;;21.10;99.90;;;;;;6725036;88;20221;-79
2022/08/05 03:03:07;;;;;;;1.80;1.05;;;21.00;99.90;;;;;;6725171;88;20659;-79
2022/08/05 03:13:15;;;;;;;1.62;1.00;;;20.90;99.90;;;;;;6726715;88;20177;-78
2022/08/05 03:23:16;;;;;;;2.35;1.27;;;20.00;99.90;;;;;;6718540;88;20224;-79
2022/08/05 03:33:17;;;;;;;2.55;1.25;;;19.70;99.90;;;;;;6725818;88;20269;-80
2022/08/05 03:43:18;;;;;;;2.42;1.40;;;19.60;99.90;;;;;;6733732;88;20205;-78
2022/08/05 03:53:42;;;;;;;2.40;1.42;;;19.60;99.90;;;;;;6719686;88;20197;-77
2022/08/05 04:03:47;;;;;;;2.73;1.53;;;19.60;99.90;;;;;;6731571;88;20255;-78
2022/08/05 04:13:48;;;;;;;;;;;19.50;99.90;;;;;;6722868;88;20213;-78
2022/08/05 04:23:49;;;;;;;2.85;1.77;;;19.30;99.90;;;;;;6736201;88;20174;-77
2022/08/05 04:33:49;;;;;;;2.73;1.90;;;19.20;99.90;;;;;;6727351;88;20202;-77
2022/08/05 04:43:50;;;;;;;3.42;2.03;;;19.20;99.90;;;;;;6723266;88;20316;-78
2022/08/05 04:53:50;;;;;;;2.80;1.58;;;19.30;99.90;;;;;;6722718;88;20178;-79
2022/08/05 05:03:51;;;;;;;3.95;2.22;;;19.30;99.90;;;;;;6745760;77;20302;-77
2022/08/05 05:13:51;;;;;;;2.40;1.77;;;19.40;99.90;;;;;;6735361;88;20216;-78
2022/08/05 05:23:52;;;;;;;3.60;2.25;;;19.30;99.90;;;;;;6726527;88;20703;-78
2022/08/05 05:33:52;;;;;;;3.83;2.17;;;19.40;99.90;;;;;;6714498;88;20786;-76
2022/08/05 05:43:53;;;;;;;2.40;1.87;;;19.40;99.90;;;;;;6722480;88;20212;-76
2022/08/05 05:53:56;;;;;;;3.72;1.92;;;19.40;99.90;;;;;;6719071;88;20277;-77
2022/08/05 06:03:56;;;;;;;3.50;2.25;;;19.50;99.90;;;;;;6709150;88;20224;-77
2022/08/05 06:13:57;;;;;;;5.55;3.22;;;19.80;99.90;;;;;;6715821;88;20708;-77
2022/08/05 06:23:58;;;;;;;3.90;2.53;;;20.10;99.90;;;;;;6715556;88;21141;-76
2022/08/05 06:33:59;;;;;;;6.53;2.97;;;20.40;99.90;;;;;;6714081;88;20196;-76
2022/08/05 06:43:59;;;;;;;5.62;3.20;;;20.90;99.90;;;;;;6718430;88;20181;-79
2022/08/05 06:54:01;;;;;;;5.43;3.03;;;20.90;99.90;;;;;;6724282;88;20186;-77
2022/08/05 07:04:02;;;;;;;4.78;2.60;;;21.00;99.90;;;;;;6725791;88;20281;-78
2022/08/05 07:24:22;;;;;;;4.87;3.10;;;20.80;99.90;;;;;;6726047;88;20507;-77
2022/08/05 07:34:23;;;;;;;5.93;3.70;;;21.00;99.90;;;;;;6722823;88;20209;-76
2022/08/05 07:44:24;;;;;;;7.30;4.68;;;21.20;99.90;;;;;;6724846;88;20217;-76
2022/08/05 07:54:27;;;;;;;7.12;4.50;;;21.00;99.90;;;;;;6722842;88;20236;-76
2022/08/05 08:04:28;;;;;;;6.37;4.00;;;21.10;99.90;;;;;;6723949;88;20285;-77
2022/08/05 08:14:28;;;;;;;5.25;3.05;;;21.80;99.90;;;;;;6720953;88;20212;-77
2022/08/05 08:24:29;;;;;;;6.72;3.40;;;21.70;99.90;;;;;;6725365;88;20325;-77
2022/08/05 08:34:30;;;;;;;5.57;3.15;;;21.60;99.90;;;;;;6724317;88;20675;-78
2022/08/05 08:44:32;;;;;;;5.75;3.30;;;21.70;99.90;;;;;;6729138;88;20197;-76
2022/08/05 08:54:34;;;;;;;6.32;3.78;;;21.50;99.90;;;;;;6730098;88;20188;-77
2022/08/05 09:04:39;;;;;;;8.13;4.00;;;21.80;99.90;;;;;;6727488;88;20319;-77
2022/08/05 09:14:39;;;;;;;8.90;4.82;;;21.90;99.90;;;;;;6728362;88;20707;-78
2022/08/05 09:24:43;;;;;;;7.03;3.65;;;21.70;99.90;;;;;;6723183;88;20292;-77
2022/08/05 09:34:53;;;;;;;9.15;4.45;;;22.00;99.90;;;;;;6721358;88;20282;-78
2022/08/05 09:44:55;;;;;;;7.97;4.68;;;21.70;99.90;;;;;;6720192;88;20206;-76
2022/08/05 09:55:04;;;;;;;10.65;5.05;;;21.70;99.90;;;;;;6718488;88;20227;-78
2022/08/05 10:05:08;;;;;;;11.63;5.62;;;21.90;99.90;;;;;;6715568;88;20684;-77
2022/08/05 10:15:16;;;;;;;10.55;5.40;;;22.20;99.90;;;;;;6722841;88;20209;-77
2022/08/05 10:25:18;;;;;;;9.27;5.45;;;21.40;99.90;;;;;;6732975;88;20203;-78
2022/08/05 10:35:18;;;;;;;9.10;4.95;;;20.80;99.90;;;;;;6728456;88;20325;-77
2022/08/05 10:45:27;;;;;;;7.62;5.10;;;20.40;99.90;;;;;;6722603;88;20660;-77
2022/08/05 10:55:30;;;;;;;5.53;3.83;;;19.90;99.90;;;;;;6720314;88;20203;-76
2022/08/05 11:05:32;;;;;;;4.22;2.53;;;19.80;99.90;;;;;;6716154;88;20245;-77
2022/08/05 11:15:42;;;;;;;3.10;1.75;;;19.70;99.90;;;;;;6717293;88;20266;-77
2022/08/05 11:25:58;;;;;;;2.65;1.65;;;19.80;99.90;;;;;;6716946;88;20190;-77
2022/08/05 11:36:07;;;;;;;1.77;1.17;;;19.90;99.90;;;;;;6715077;88;20205;-77
2022/08/05 11:46:07;;;;;;;2.00;1.02;;;20.10;99.90;;;;;;6716665;88;20659;-76
2022/08/05 11:56:08;;;;;;;2.72;1.30;;;20.30;99.90;;;;;;6720519;88;20592;-76
2022/08/05 12:06:09;;;;;;;2.20;1.33;;;20.80;99.90;;;;;;6717508;88;20194;-77
2022/08/05 12:16:17;;;;;;;1.90;1.20;;;21.90;99.90;;;;;;6719391;88;20203;-77
2022/08/05 12:26:17;;;;;;;1.65;1.05;;;23.60;99.90;;;;;;6726168;88;20186;-77
2022/08/05 12:36:18;;;;;;;1.98;1.10;;;23.40;99.90;;;;;;6719842;88;20803;-76
2022/08/05 12:46:27;;;;;;;2.60;1.62;;;23.40;99.90;;;;;;6723037;88;20664;-77
2022/08/05 12:56:29;;;;;;;1.80;1.20;;;23.70;99.90;;;;;;6726839;88;20194;-77
2022/08/05 13:06:30;;;;;;;1.87;1.17;;;26.00;99.90;;;;;;6718902;88;20705;-78
2022/08/05 13:16:30;;;;;;;3.35;1.00;;;26.30;99.90;;;;;;6729814;88;20271;-78
2022/08/05 13:26:31;;;;;;;1.58;1.05;;;26.90;99.50;;;;;;6722860;88;20180;-77
2022/08/05 13:36:33;;;;;;;2.03;1.20;;;27.80;98.10;;;;;;6723083;88;20263;-76
2022/08/05 13:46:33;;;;;;;1.80;1.00;;;27.90;96.70;;;;;;6715993;88;20199;-77
2022/08/05 13:56:34;;;;;;;1.50;1.08;;;27.20;96.80;;;;;;6716084;88;20348;-77
2022/08/05 14:06:35;;;;;;;1.73;1.00;;;26.90;96.90;;;;;;6715643;88;20282;-77
2022/08/05 14:16:35;;;;;;;1.80;1.20;;;26.60;96.90;;;;;;6721840;88;20210;-79
2022/08/05 14:26:36;;;;;;;1.70;1.27;;;27.40;96.80;;;;;;6729729;88;20186;-77
2022/08/05 14:36:37;;;;;;;1.50;1.10;;;27.50;96.00;;;;;;6732907;88;20587;-77
2022/08/05 14:46:38;;;;;;;1.80;1.33;;;28.50;95.60;;;;;;6725404;88;20238;-77
2022/08/05 14:56:38;;;;;;;1.60;1.17;;;27.90;95.30;;;;;;6717814;88;20211;-77
2022/08/05 15:06:39;;;;;;;1.80;1.30;;;27.00;96.30;;;;;;6726045;88;20530;-77
2022/08/05 15:16:40;;;;;;;2.03;1.30;;;26.50;96.00;;;;;;6714753;88;20916;-78
2022/08/05 15:26:40;;;;;;;2.12;1.45;;;26.50;95.90;;;;;;6718321;88;20691;-78
2022/08/05 15:36:40;;;;;;;1.98;1.23;;;25.10;97.90;;;;;;6714034;88;20208;-76
2022/08/05 15:46:41;;;;;;;1.20;0.93;;;24.90;98.50;;;;;;6718232;88;20185;-80
2022/08/05 15:56:42;;;;;;;1.55;0.90;;;25.40;95.30;;;;;;6718813;88;20203;-79
2022/08/05 16:06:42;;;;;;;1.48;0.70;;;24.90;93.90;;;;;;6720696;88;20249;-77
2022/08/05 16:16:43;;;;;;;1.58;0.75;;;24.40;95.00;;;;;;6718490;88;20205;-77
2022/08/05 16:26:55;;;;;;;0.80;0.40;;;24.10;95.50;;;;;;6718961;88;20272;-77
2022/08/05 16:36:56;;;;;;;0.93;0.47;;;23.90;95.50;;;;;;6716506;88;20310;-79
2022/08/05 16:46:56;;;;;;;1.40;0.70;;;24.00;95.20;;;;;;6718921;88;20178;-78
2022/08/05 16:56:57;;;;;;;1.58;0.70;;;24.10;95.50;;;;;;6718652;88;20269;-78
2022/08/05 17:06:59;;;;;;;2.40;1.17;;;24.00;96.10;;;;;;6718637;88;20189;-80
2022/08/05 17:16:59;;;;;;;1.87;0.80;;;23.70;96.50;;;;;;6717427;88;20747;-77
2022/08/05 17:27:00;;;;;;;1.17;0.70;;;23.60;96.80;;;;;;6717440;88;20179;-79
2022/08/05 17:37:01;;;;;;;1.50;0.80;;;23.40;97.40;;;;;;6720190;88;20709;-78
2022/08/05 17:47:01;;;;;;;0.90;0.55;;;23.20;97.10;;;;;;6718425;88;20195;-78
2022/08/05 17:57:03;;;;;;;0.90;0.60;;;23.10;97.40;;;;;;6718546;88;20195;-79
2022/08/05 18:07:04;;;;;;;0.47;0.30;;;22.90;96.90;;;;;;6719135;88;20196;-78
2022/08/05 18:17:05;;;;;;;1.37;0.85;;;22.80;97.40;;;;;;6716556;88;20214;-78
2022/08/05 18:27:07;;;;;;;0.70;0.37;;;22.80;97.80;;;;;;6716874;88;20307;-76
2022/08/05 18:37:07;;;;;;;0.60;0.30;;;22.70;97.30;;;;;;6717752;88;20221;-78
2022/08/05 18:47:08;;;;;;;0.80;0.30;;;22.50;93.90;;;;;;6715504;88;20610;-77
2022/08/05 18:57:11;;;;;;;0.50;0.30;;;22.30;93.50;;;;;;6729566;88;20207;-76
2022/08/05 19:07:11;;;;;;;1.00;0.40;;;21.90;92.50;;;;;;6728611;88;20168;-79
2022/08/05 19:17:13;;;;;;;0.65;0.30;;;21.90;93.10;;;;;;6712563;88;20692;-77
2022/08/05 19:27:13;;;;;;;0.75;0.40;;;21.80;93.40;;;;;;6710959;88;20241;-77
2022/08/05 19:37:14;;;;;;;0.60;0.35;;;21.40;93.80;;;;;;6716121;88;20234;-76
2022/08/05 19:47:15;;;;;;;0.93;0.47;;;21.20;94.10;;;;;;6713866;88;20211;-77
2022/08/05 19:57:16;;;;;;;0.70;0.30;;;20.90;94.40;;;;;;6711097;88;20394;-76
2022/08/05 20:07:17;;;;;;;1.00;0.40;;;20.80;94.70;;;;;;6710944;88;20755;-75
2022/08/05 20:17:17;;;;;;;1.10;0.50;;;20.50;95.90;;;;;;6714034;88;20222;-77
2022/08/05 20:27:18;;;;;;;2.37;0.40;;;20.30;95.70;;;;;;6712012;88;20218;-77
2022/08/05 20:37:18;;;;;;;0.70;0.40;;;20.20;95.70;;;;;;6714405;88;20190;-76
2022/08/05 20:47:19;;;;;;;0.73;0.30;;;20.00;96.70;;;;;;6711806;88;20205;-75
2022/08/05 20:57:19;;;;;;;1.12;0.30;;;20.00;95.80;;;;;;6716693;88;20269;-77
2022/08/05 21:07:20;;;;;;;1.02;0.50;;;19.80;96.80;;;;;;6709562;88;20193;-76
2022/08/05 21:17:21;;;;;;;0.82;0.43;;;19.60;97.00;;;;;;6709536;88;20221;-76
2022/08/05 21:27:21;;;;;;;0.70;0.30;;;19.50;97.00;;;;;;6711440;88;20182;-76
2022/08/05 21:37:22;;;;;;;0.60;0.30;;;19.30;97.30;;;;;;6713759;88;20666;-76
2022/08/05 21:47:24;;;;;;;0.60;0.30;;;19.10;98.10;;;;;;6715074;88;20202;-76
2022/08/05 21:57:25;;;;;;;0.40;0.20;;;18.80;99.30;;;;;;6713491;88;20511;-76
2022/08/05 22:07:25;;;;;;;1.95;1.35;;;18.50;99.90;;;;;;6719754;88;20204;-76
2022/08/05 22:17:26;;;;;;;2.00;0.55;;;18.30;99.90;;;;;;6714551;88;20274;-77
2022/08/05 22:27:41;;;;;;;1.08;0.50;;;18.10;99.90;;;;;;6714019;88;20209;-76
2022/08/05 22:37:42;;;;;;;0.60;0.30;;;18.10;99.90;;;;;;6714532;88;20700;-75
2022/08/05 22:47:43;;;;;;;0.60;0.30;;;18.10;99.90;;;;;;6707695;88;20205;-76
2022/08/05 22:58:04;;;;;;;0.90;0.30;;;18.10;99.90;;;;;;6705010;88;20209;-76
2022/08/05 23:08:05;;;;;;;0.57;0.30;;;17.80;99.90;;;;;;6704747;88;20360;-75
2022/08/05 23:18:06;;;;;;;0.90;0.30;;;17.80;99.90;;;;;;6688385;88;20189;-77
2022/08/05 23:28:07;;;;;;;0.60;0.30;;;17.70;99.90;;;;;;6692102;88;20707;-76
2022/08/05 23:38:08;;;;;;;0.50;0.20;;;17.50;99.90;;;;;;6689408;88;20236;-76
2022/08/05 23:48:08;;;;;;;0.55;0.20;;;17.30;99.90;;;;;;6689959;88;21389;-77
2022/08/05 23:58:09;;;;;;;0.98;0.40;;;17.20;99.90;;;;;;6688146;88;21412;-76
